Time;durP1;ratioP1;P1;durP2;ratioP2;P2;SDS_P1;SDS_P2;PMS_P1;PMS_P2;Temp;Humidity;BMP_temperature;BMP_pressure;BME280_temperature;BME280_humidity;BME280_pressure;Samples;Min_cycle;Max_cycle;Signal;HPM_P1;HPM_P2
2023/07/23 00:00:16;;;;;;;11.05;6.80;;;;;;;15.34;100.00;100871.63;5051481;28;20039;-75
2023/07/23 00:02:41;;;;;;;9.73;7.35;;;;;;;15.32;100.00;100869.97;5044249;28;20497;-75
2023/07/23 00:05:07;;;;;;;10.18;7.22;;;;;;;15.34;100.00;100870.78;5044625;28;20105;-75
2023/07/23 00:07:32;;;;;;;11.02;7.38;;;;;;;15.35;100.00;100862.81;5043504;28;20029;-76
2023/07/23 00:09:58;;;;;;;10.90;7.25;;;;;;;15.26;100.00;100842.19;5038505;28;20038;-76
2023/07/23 00:12:23;;;;;;;15.60;7.68;;;;;;;15.37;100.00;100854.88;5049847;28;20086;-75
2023/07/23 00:14:48;;;;;;;9.60;7.68;;;;;;;15.33;100.00;100853.28;5034694;28;20025;-76
2023/07/23 00:17:14;;;;;;;11.15;7.50;;;;;;;15.33;100.00;100848.03;5043095;28;20032;-75
2023/07/23 00:19:39;;;;;;;10.32;7.63;;;;;;;15.31;100.00;100848.09;5039072;28;20033;-75
2023/07/23 00:22:04;;;;;;;9.18;6.78;;;;;;;15.34;100.00;100844.50;5039745;28;20116;-76
2023/07/23 00:24:30;;;;;;;10.23;6.70;;;;;;;15.34;100.00;100836.63;5046062;28;20036;-76
2023/07/23 00:26:55;;;;;;;10.48;7.10;;;;;;;15.34;100.00;100836.63;5043071;28;20037;-75
2023/07/23 00:29:20;;;;;;;11.52;7.55;;;;;;;15.29;100.00;100828.91;5038155;28;20215;-76
2023/07/23 00:31:46;;;;;;;10.45;7.22;;;;;;;15.27;100.00;100822.91;5044459;28;20477;-76
2023/07/23 00:34:11;;;;;;;11.98;7.22;;;;;;;15.30;100.00;100827.16;5046720;28;20044;-75
2023/07/23 00:36:36;;;;;;;11.60;7.63;;;;;;;15.27;100.00;100819.41;5039240;28;20496;-75
2023/07/23 00:39:03;;;;;;;10.02;6.90;;;;;;;15.28;100.00;100814.09;5046413;28;20549;-76
2023/07/23 00:41:28;;;;;;;9.75;7.03;;;;;;;15.20;100.00;100800.44;5046030;28;20025;-76
2023/07/23 00:43:54;;;;;;;7.65;6.28;;;;;;;15.26;100.00;100808.03;5043924;28;20373;-76
2023/07/23 00:46:19;;;;;;;12.63;6.78;;;;;;;15.22;100.00;100796.81;5046948;28;20496;-76
2023/07/23 00:48:44;;;;;;;12.23;7.15;;;;;;;15.21;100.00;100800.38;5046022;28;20502;-75
2023/07/23 00:51:10;;;;;;;11.38;6.78;;;;;;;15.21;100.00;100783.78;5043586;28;20025;-75
2023/07/23 00:53:35;;;;;;;8.93;6.90;;;;;;;15.19;100.00;100785.59;5035546;28;20026;-76
2023/07/23 00:56:02;;;;;;;10.02;6.97;;;;;;;15.17;100.00;100780.44;5042239;28;20047;-75
2023/07/23 00:58:27;;;;;;;11.35;6.20;;;;;;;15.14;100.00;100783.19;5044295;28;20017;-75
2023/07/23 01:00:53;;;;;;;7.95;6.20;;;;;;;15.13;100.00;100778.84;5044679;28;20029;-75
2023/07/23 01:03:18;;;;;;;9.48;6.55;;;;;;;15.11;100.00;100772.81;5044446;28;20029;-75
2023/07/23 01:05:46;;;;;;;8.98;6.50;;;;;;;15.10;100.00;100775.50;5038220;28;20025;-75
2023/07/23 01:08:12;;;;;;;9.45;5.43;;;;;;;15.08;100.00;100766.84;5040573;28;20029;-75
2023/07/23 01:10:39;;;;;;;8.27;5.78;;;;;;;15.06;100.00;100763.41;5039579;28;20025;-75
2023/07/23 01:13:05;;;;;;;8.70;5.85;;;;;;;15.01;100.00;100747.00;5043710;28;20366;-75
2023/07/23 01:15:31;;;;;;;7.43;5.95;;;;;;;15.01;100.00;100753.13;5040326;28;20064;-75
2023/07/23 01:18:00;;;;;;;8.25;5.88;;;;;;;15.01;100.00;100750.50;5046088;28;20028;-75
2023/07/23 01:20:25;;;;;;;10.68;6.30;;;;;;;15.03;100.00;100740.78;5042256;28;20481;-75
2023/07/23 01:22:50;;;;;;;9.98;5.97;;;;;;;15.01;100.00;100736.50;5042326;28;20036;-75
2023/07/23 01:25:16;;;;;;;10.38;6.53;;;;;;;14.97;100.00;100735.78;5034305;28;20040;-75
2023/07/23 01:27:41;;;;;;;10.50;6.13;;;;;;;14.94;100.00;100730.66;5041481;28;20600;-75
2023/07/23 01:30:08;;;;;;;8.75;6.13;;;;;;;14.92;100.00;100725.50;5035936;28;20147;-76
2023/07/23 01:32:34;;;;;;;8.93;6.35;;;;;;;14.94;100.00;100726.28;5048337;28;20049;-75
2023/07/23 01:35:03;;;;;;;13.82;8.07;;;;;;;14.92;100.00;100719.41;5042263;28;20119;-75
2023/07/23 01:37:28;;;;;;;11.32;6.93;;;;;;;14.93;100.00;100718.47;5040644;28;20030;-76
2023/07/23 01:39:54;;;;;;;11.20;7.05;;;;;;;14.93;100.00;100713.22;5044586;28;20018;-75
2023/07/23 01:42:20;;;;;;;12.18;7.40;;;;;;;14.90;100.00;100714.19;5038331;28;20029;-75
2023/07/23 01:44:45;;;;;;;9.15;6.97;;;;;;;14.86;100.00;100698.66;5037115;28;20025;-75
2023/07/23 01:47:10;;;;;;;11.38;6.60;;;;;;;14.87;100.00;100692.47;5042574;28;20481;-75
2023/07/23 01:49:36;;;;;;;9.43;7.18;;;;;;;14.94;100.00;100704.41;5046080;28;20033;-75
2023/07/23 01:52:01;;;;;;;11.07;7.25;;;;;;;14.95;100.00;100707.00;5046854;28;20029;-75
2023/07/23 01:54:26;;;;;;;9.68;6.72;;;;;;;14.90;100.00;100694.97;5041570;28;20021;-75
2023/07/23 01:56:53;;;;;;;10.52;7.20;;;;;;;14.89;100.00;100688.03;5038029;28;20021;-76
2023/07/23 01:59:18;;;;;;;9.00;6.93;;;;;;;14.85;100.00;100678.59;5037062;28;20022;-75
2023/07/23 02:01:43;;;;;;;8.93;6.78;;;;;;;14.87;100.00;100687.22;5042227;28;20075;-75
2023/07/23 02:04:09;;;;;;;9.40;7.15;;;;;;;14.84;100.00;100674.25;5043844;28;20099;-75
2023/07/23 02:06:36;;;;;;;9.13;6.72;;;;;;;14.87;100.00;100671.50;5043224;28;20029;-75
2023/07/23 02:09:02;;;;;;;10.77;6.80;;;;;;;14.82;100.00;100669.06;5039159;28;20048;-75
2023/07/23 02:11:27;;;;;;;10.18;7.18;;;;;;;14.87;100.00;100664.47;5040906;28;20527;-75
2023/07/23 02:13:53;;;;;;;9.07;6.28;;;;;;;14.87;100.00;100671.50;5038820;28;20026;-75
2023/07/23 02:16:19;;;;;;;10.20;6.65;;;;;;;14.78;100.00;100643.91;5035678;28;20033;-75
2023/07/23 02:18:45;;;;;;;15.75;7.10;;;;;;;14.82;100.00;100648.09;5042112;28;20124;-75
2023/07/23 02:21:10;;;;;;;9.40;6.95;;;;;;;14.84;100.00;100658.50;5035039;28;20524;-75
2023/07/23 02:23:35;;;;;;;10.98;6.65;;;;;;;14.81;100.00;100650.75;5037529;28;20038;-76
2023/07/23 02:26:01;;;;;;;9.25;6.20;;;;;;;14.87;100.00;100651.34;5045398;28;20029;-75
2023/07/23 02:28:26;;;;;;;11.90;6.32;;;;;;;14.83;100.00;100643.69;5042654;28;20090;-75
2023/07/23 02:30:59;;;;;;;8.45;6.30;;;;;;;14.87;100.00;100651.34;5042579;28;20460;-76
2023/07/23 02:33:25;;;;;;;10.20;7.03;;;;;;;14.90;100.00;100645.09;5044004;28;20037;-75
2023/07/23 02:35:51;;;;;;;10.43;6.00;;;;;;;14.88;100.00;100636.47;5043020;28;20057;-76
2023/07/23 02:38:17;;;;;;;7.90;6.05;;;;;;;14.77;100.00;100612.47;5037350;28;20036;-77
2023/07/23 02:40:42;;;;;;;7.68;5.95;;;;;;;14.82;100.00;100634.13;5031482;28;20041;-76
2023/07/23 02:43:11;;;;;;;7.75;5.47;;;;;;;14.80;100.00;100631.53;5041298;28;20103;-75
2023/07/23 02:45:37;;;;;;;9.05;5.57;;;;;;;14.77;100.00;100621.19;5040275;28;20031;-75
2023/07/23 02:48:02;;;;;;;9.48;5.32;;;;;;;14.84;100.00;100632.25;5044222;28;20033;-75
2023/07/23 02:50:28;;;;;;;10.23;6.05;;;;;;;14.75;100.00;100626.50;5050333;28;20024;-75
2023/07/23 02:52:53;;;;;;;8.50;5.30;;;;;;;14.79;100.00;100629.00;5042455;28;20018;-75
2023/07/23 02:55:19;;;;;;;7.85;5.50;;;;;;;14.83;100.00;100627.94;5043147;28;20029;-75
2023/07/23 02:57:44;;;;;;;9.52;5.35;;;;;;;14.88;100.00;100631.22;5044876;28;20017;-75
2023/07/23 03:00:11;;;;;;;7.03;5.18;;;;;;;14.80;100.00;100622.81;5040211;28;20026;-75
2023/07/23 03:02:37;;;;;;;10.10;5.50;;;;;;;14.82;100.00;100626.25;5042966;28;20060;-76
2023/07/23 03:05:03;;;;;;;7.57;5.28;;;;;;;14.82;100.00;100613.13;5036902;28;20052;-75
2023/07/23 03:07:31;;;;;;;8.85;5.05;;;;;;;14.81;100.00;100627.13;5043300;28;20063;-75
2023/07/23 03:09:56;;;;;;;8.10;5.30;;;;;;;14.78;100.00;100619.41;5039305;28;20033;-75
2023/07/23 03:12:21;;;;;;;6.82;5.25;;;;;;;14.75;100.00;100615.16;5041559;28;20403;-75
2023/07/23 03:14:47;;;;;;;10.13;5.00;;;;;;;14.83;100.00;100622.69;5041625;28;20025;-75
2023/07/23 03:17:12;;;;;;;8.07;5.10;;;;;;;14.84;100.00;100616.50;5040329;28;20039;-75
2023/07/23 03:19:37;;;;;;;6.15;4.90;;;;;;;14.78;100.00;100604.53;5042643;28;20049;-75
2023/07/23 03:22:03;;;;;;;6.95;4.95;;;;;;;14.83;100.00;100612.19;5039372;28;20031;-75
2023/07/23 03:24:28;;;;;;;7.78;5.20;;;;;;;14.74;100.00;100597.69;5040531;28;20026;-75
2023/07/23 03:26:53;;;;;;;8.93;5.28;;;;;;;14.80;100.00;100612.31;5038281;28;20047;-75
2023/07/23 03:29:19;;;;;;;8.68;4.78;;;;;;;14.80;100.00;100605.31;5046913;28;20028;-75
2023/07/23 03:31:44;;;;;;;7.13;4.75;;;;;;;14.81;100.00;100607.00;5033999;28;20025;-75
2023/07/23 03:34:09;;;;;;;7.13;5.28;;;;;;;14.82;100.00;100611.34;5044582;28;20595;-75
2023/07/23 03:36:35;;;;;;;6.30;5.03;;;;;;;14.81;100.00;100604.38;5039141;28;20025;-75
2023/07/23 03:39:00;;;;;;;11.25;5.20;;;;;;;14.78;100.00;100606.28;5036561;28;20416;-75
2023/07/23 03:41:25;;;;;;;8.35;4.97;;;;;;;14.83;100.00;100615.66;5040306;28;20029;-75
2023/07/23 03:43:51;;;;;;;7.40;4.80;;;;;;;14.80;100.00;100607.06;5040389;28;20040;-75
2023/07/23 03:46:16;;;;;;;7.32;4.15;;;;;;;14.84;100.00;100614.72;5036592;28;20033;-75
2023/07/23 03:48:41;;;;;;;6.80;4.50;;;;;;;14.82;100.00;100608.72;5043336;28;20029;-75
2023/07/23 03:51:07;;;;;;;6.20;4.05;;;;;;;14.77;100.00;100596.72;5041649;28;20033;-75
2023/07/23 03:53:32;;;;;;;7.15;4.40;;;;;;;14.80;100.00;100609.69;5036543;28;20037;-75
2023/07/23 03:55:57;;;;;;;8.35;5.00;;;;;;;14.82;100.00;100607.88;5039336;28;20052;-75
2023/07/23 03:58:22;;;;;;;9.05;4.80;;;;;;;14.77;100.00;100600.19;5042001;28;20059;-75
2023/07/23 04:00:48;;;;;;;7.07;4.40;;;;;;;14.86;100.00;100614.69;5040849;28;20078;-75
2023/07/23 04:03:13;;;;;;;9.73;3.90;;;;;;;14.82;100.00;100606.09;5040734;28;20076;-75
2023/07/23 04:05:38;;;;;;;6.93;4.50;;;;;;;14.78;100.00;100601.91;5039296;28;20094;-74
2023/07/23 04:08:04;;;;;;;9.43;4.55;;;;;;;14.82;100.00;100618.38;5039072;28;20073;-75
2023/07/23 04:10:29;;;;;;;6.97;4.55;;;;;;;14.79;100.00;100603.59;5041781;28;20128;-75
2023/07/23 04:12:55;;;;;;;8.10;4.80;;;;;;;14.82;100.00;100611.34;5035354;28;20072;-75
2023/07/23 04:15:20;;;;;;;5.75;4.80;;;;;;;14.91;100.00;100608.31;5048478;28;20025;-75
2023/07/23 04:17:45;;;;;;;6.70;4.53;;;;;;;14.89;100.00;100599.66;5042331;28;20058;-75
2023/07/23 04:20:11;;;;;;;7.82;4.60;;;;;;;14.95;100.00;100607.25;5039346;28;20031;-75
2023/07/23 04:22:36;;;;;;;6.80;4.43;;;;;;;14.96;100.00;100603.69;5044535;28;20082;-75
2023/07/23 04:25:02;;;;;;;5.22;4.35;;;;;;;15.03;100.00;100617.38;5035308;28;20354;-75
2023/07/23 04:27:27;;;;;;;9.15;4.38;;;;;;;15.02;100.00;100607.81;5034938;28;20044;-75
2023/07/23 04:29:53;;;;;;;7.53;4.20;;;;;;;15.08;100.00;100607.53;5039553;28;20029;-75
2023/07/23 04:32:19;;;;;;;6.35;4.15;;;;;;;15.14;100.00;100607.25;5040293;28;20450;-75
2023/07/23 04:34:44;;;;;;;5.70;4.30;;;;;;;15.19;100.00;100610.50;5044288;28;20108;-75
2023/07/23 04:37:11;;;;;;;5.60;4.03;;;;;;;15.22;100.00;100618.25;5042787;28;20030;-75
2023/07/23 04:39:37;;;;;;;5.40;4.05;;;;;;;15.26;100.00;100616.31;5038684;28;20495;-75
2023/07/23 04:42:03;;;;;;;6.28;4.30;;;;;;;15.29;100.00;100607.47;5039127;28;20033;-75
2023/07/23 04:44:28;;;;;;;7.55;4.25;;;;;;;15.32;100.00;100618.66;5041720;28;20021;-75
2023/07/23 04:46:53;;;;;;;7.22;4.65;;;;;;;15.32;100.00;100609.94;5047022;28;20037;-75
2023/07/23 04:49:19;;;;;;;6.18;4.30;;;;;;;15.30;100.00;100607.38;5040899;28;20061;-75
2023/07/23 04:51:44;;;;;;;6.78;4.15;;;;;;;15.32;100.00;100607.31;5038310;28;20033;-76
2023/07/23 04:54:09;;;;;;;7.45;4.07;;;;;;;15.34;100.00;100602.84;5045853;28;20028;-75
2023/07/23 04:56:35;;;;;;;6.72;4.40;;;;;;;15.33;100.00;100603.75;5040509;28;20053;-75
2023/07/23 04:59:00;;;;;;;6.03;4.20;;;;;;;15.31;100.00;100600.38;5042283;28;20488;-75
2023/07/23 05:01:26;;;;;;;7.28;4.07;;;;;;;15.29;100.00;100610.09;5046247;28;20029;-75
2023/07/23 05:03:51;;;;;;;6.68;4.30;;;;;;;15.29;100.00;100600.44;5045747;28;20025;-75
2023/07/23 05:06:16;;;;;;;9.98;4.25;;;;;;;15.32;100.00;100604.69;5045329;28;20038;-75
2023/07/23 05:08:41;;;;;;;5.43;3.80;;;;;;;15.30;100.00;100590.78;5040957;28;20033;-75
2023/07/23 05:11:07;;;;;;;7.20;4.85;;;;;;;15.20;100.00;100600.84;5036927;28;20034;-75
2023/07/23 05:13:34;;;;;;;5.97;4.40;;;;;;;15.04;100.00;100597.22;5042414;28;20632;-75
2023/07/23 05:16:05;;;;;;;7.85;3.88;;;;;;;14.98;100.00;100606.25;5040201;28;20469;-75
2023/07/23 05:18:31;;;;;;;6.15;4.32;;;;;;;14.91;100.00;100610.06;5044765;28;20037;-75
2023/07/23 05:20:56;;;;;;;6.50;4.20;;;;;;;14.93;100.00;100616.09;5040686;28;20029;-75
2023/07/23 05:23:22;;;;;;;6.40;3.90;;;;;;;14.92;100.00;100611.78;5041440;28;20135;-75
2023/07/23 05:25:47;;;;;;;5.82;4.60;;;;;;;14.92;100.00;100617.88;5041666;28;20534;-75
2023/07/23 05:28:13;;;;;;;7.72;4.88;;;;;;;14.86;100.00;100604.19;5044922;28;20073;-75
2023/07/23 05:30:39;;;;;;;7.15;4.40;;;;;;;14.88;100.00;100597.94;5039461;28;20032;-75
2023/07/23 05:33:04;;;;;;;6.63;4.57;;;;;;;14.93;100.00;100605.59;5040837;28;20045;-75
2023/07/23 05:35:30;;;;;;;7.97;4.07;;;;;;;14.95;100.00;100598.53;5045000;28;20026;-75
2023/07/23 05:37:55;;;;;;;6.63;4.18;;;;;;;14.94;100.00;100599.41;5042999;28;20082;-74
2023/07/23 05:40:21;;;;;;;10.30;4.50;;;;;;;15.00;100.00;100596.53;5043739;28;20037;-75
2023/07/23 05:42:47;;;;;;;7.97;4.45;;;;;;;15.07;100.00;100590.06;5042969;28;20124;-75
2023/07/23 05:45:12;;;;;;;9.38;4.40;;;;;;;15.13;100.00;100600.28;5042093;28;20108;-75
2023/07/23 05:47:37;;;;;;;9.32;4.20;;;;;;;15.09;100.00;100595.25;5042233;28;20064;-75
2023/07/23 05:50:03;;;;;;;5.68;3.95;;;;;;;14.99;100.00;100598.31;5046053;28;20433;-75
2023/07/23 05:52:28;;;;;;;7.43;3.92;;;;;;;14.89;100.00;100607.50;5042022;28;20079;-75
2023/07/23 05:54:54;;;;;;;7.88;4.63;;;;;;;14.90;100.00;100593.47;5046255;28;20074;-75
2023/07/23 05:57:19;;;;;;;6.20;4.20;;;;;;;15.06;100.00;100598.88;5046077;28;20028;-75
2023/07/23 05:59:44;;;;;;;5.22;3.85;;;;;;;15.18;100.00;100598.31;5045782;28;20043;-75
2023/07/23 06:02:10;;;;;;;6.90;4.63;;;;;;;15.24;100.00;100594.56;5044032;28;20032;-75
2023/07/23 06:04:37;;;;;;;7.57;4.32;;;;;;;15.34;100.00;100589.72;5041831;28;20499;-75
2023/07/23 06:07:03;;;;;;;5.30;3.67;;;;;;;15.44;100.00;100599.72;5032853;28;20030;-75
2023/07/23 06:09:28;;;;;;;5.22;4.03;;;;;;;15.48;100.00;100603.03;5038347;28;20044;-75
2023/07/23 06:11:55;;;;;;;5.32;4.00;;;;;;;15.40;100.00;100599.91;5041332;28;20114;-75
2023/07/23 06:14:20;;;;;;;6.50;4.38;;;;;;;15.26;100.00;100612.84;5043571;28;20048;-75
2023/07/23 06:16:45;;;;;;;6.93;4.40;;;;;;;14.97;100.00;100588.78;5041500;28;20464;-75
2023/07/23 06:19:11;;;;;;;5.20;4.20;;;;;;;14.85;100.00;100607.72;5044356;28;20033;-75
2023/07/23 06:21:36;;;;;;;5.15;4.05;;;;;;;14.72;100.00;100610.91;5041188;28;20035;-75
2023/07/23 06:24:02;;;;;;;6.75;4.50;;;;;;;14.61;100.00;100602.63;5040110;28;20021;-75
2023/07/23 06:26:27;;;;;;;9.68;4.63;;;;;;;14.60;100.00;100608.81;5035880;28;20485;-75
2023/07/23 06:28:53;;;;;;;5.50;4.47;;;;;;;14.65;100.00;100608.59;5036865;28;20068;-76
2023/07/23 06:31:18;;;;;;;8.70;4.35;;;;;;;14.56;100.00;100596.75;5043417;28;20510;-76
2023/07/23 06:33:43;;;;;;;5.82;3.92;;;;;;;14.74;100.00;100614.28;5042781;28;20108;-75
2023/07/23 06:36:08;;;;;;;8.02;4.65;;;;;;;14.89;100.00;100614.53;5044218;28;20196;-75
2023/07/23 06:38:34;;;;;;;7.97;4.53;;;;;;;15.09;100.00;100619.72;5040986;28;20107;-75
2023/07/23 06:40:59;;;;;;;5.88;4.10;;;;;;;15.32;100.00;100628.34;5040600;28;20033;-75
2023/07/23 06:43:25;;;;;;;5.57;4.45;;;;;;;15.47;100.00;100627.63;5044563;28;20086;-76
2023/07/23 06:45:51;;;;;;;5.93;4.07;;;;;;;15.59;100.00;100624.38;5038127;28;20033;-75
2023/07/23 06:48:19;;;;;;;7.78;4.20;;;;;;;15.63;100.00;100625.09;5044154;28;20033;-75
2023/07/23 06:50:45;;;;;;;9.52;4.20;;;;;;;15.73;100.00;100634.28;5047344;28;20171;-76
2023/07/23 06:53:11;;;;;;;7.90;4.47;;;;;;;15.81;100.00;100629.50;5043396;28;20033;-76
2023/07/23 06:55:59;;;;;;;5.60;4.45;;;;;;;15.82;100.00;100643.50;5044778;28;20029;-75
2023/07/23 06:58:24;;;;;;;8.10;4.55;;;;;;;15.74;100.00;100627.25;5036038;28;20499;-75
2023/07/23 07:00:50;;;;;;;9.68;4.50;;;;;;;15.60;100.00;100636.63;5042723;28;20028;-75
2023/07/23 07:03:15;;;;;;;6.15;4.20;;;;;;;15.44;100.00;100641.75;5039010;28;20025;-76
2023/07/23 07:05:40;;;;;;;8.65;4.72;;;;;;;15.21;100.00;100639.34;5040296;28;20033;-75
2023/07/23 07:08:06;;;;;;;6.43;4.93;;;;;;;14.99;100.00;100631.56;5034098;28;20026;-75
2023/07/23 07:10:36;;;;;;;7.30;4.90;;;;;;;14.89;100.00;100646.03;5041673;28;20095;-75
2023/07/23 07:13:02;;;;;;;7.00;5.43;;;;;;;14.87;100.00;100642.63;5038150;28;20029;-75
2023/07/23 07:15:28;;;;;;;6.68;4.75;;;;;;;14.85;100.00;100647.09;5042696;28;20528;-76
2023/07/23 07:17:53;;;;;;;9.90;5.03;;;;;;;14.78;100.00;100632.53;5043903;28;20025;-76
2023/07/23 07:20:18;;;;;;;11.88;5.43;;;;;;;14.61;100.00;100623.63;5033127;28;20026;-76
2023/07/23 07:22:44;;;;;;;8.65;5.35;;;;;;;14.66;100.00;100626.06;5043731;28;20021;-76
2023/07/23 07:25:09;;;;;;;11.00;5.53;;;;;;;14.55;100.00;100626.53;5039966;28;20424;-77
2023/07/23 07:27:34;;;;;;;11.20;5.45;;;;;;;14.57;100.00;100634.31;5039299;28;20481;-77
2023/07/23 07:30:00;;;;;;;9.38;5.82;;;;;;;14.56;100.00;100640.50;5039652;28;20029;-78
2023/07/23 07:32:25;;;;;;;13.07;6.28;;;;;;;14.48;100.00;100619.78;5040391;28;20401;-79
2023/07/23 07:34:50;;;;;;;10.25;6.32;;;;;;;14.58;100.00;100631.63;5043704;28;20076;-77
2023/07/23 07:37:16;;;;;;;11.45;5.97;;;;;;;14.53;100.00;100644.09;5038678;28;20053;-77
2023/07/23 07:39:41;;;;;;;8.57;6.28;;;;;;;14.52;100.00;100634.53;5041206;28;20087;-78
2023/07/23 07:42:07;;;;;;;12.50;6.60;;;;;;;14.64;100.00;100633.13;5037590;28;20024;-77
2023/07/23 07:44:32;;;;;;;8.82;6.47;;;;;;;14.82;100.00;100639.38;5031626;28;20017;-78
2023/07/23 07:46:58;;;;;;;9.10;6.30;;;;;;;14.90;100.00;100645.97;5045561;28;20025;-77
2023/07/23 07:49:23;;;;;;;9.45;6.20;;;;;;;14.96;100.00;100635.19;5038420;28;20039;-76
2023/07/23 07:51:48;;;;;;;9.38;6.28;;;;;;;15.00;100.00;100641.16;5037613;28;20370;-76
2023/07/23 07:54:14;;;;;;;10.05;6.00;;;;;;;14.94;100.00;100638.78;5046217;28;20456;-76
2023/07/23 07:56:40;;;;;;;10.90;6.18;;;;;;;14.90;100.00;100647.72;5042973;28;20527;-76
2023/07/23 07:59:06;;;;;;;9.13;6.15;;;;;;;14.85;100.00;100636.59;5043390;28;20170;-76
2023/07/23 08:01:31;;;;;;;9.70;6.60;;;;;;;14.86;100.00;100633.91;5034546;28;20025;-75
2023/07/23 08:03:57;;;;;;;8.65;6.40;;;;;;;14.94;100.00;100641.41;5034224;28;20029;-75
2023/07/23 08:06:24;;;;;;;11.38;6.68;;;;;;;15.04;100.00;100648.00;5031652;28;20025;-75
2023/07/23 08:08:51;;;;;;;10.02;6.68;;;;;;;15.13;100.00;100642.28;5034387;28;20053;-76
2023/07/23 08:11:17;;;;;;;8.00;6.05;;;;;;;15.19;100.00;100636.75;5030034;28;20030;-76
2023/07/23 08:13:43;;;;;;;7.78;5.75;;;;;;;15.21;100.00;100634.94;5041507;28;20111;-76
2023/07/23 08:16:09;;;;;;;9.48;6.07;;;;;;;15.22;100.00;100635.78;5033013;28;20035;-76
2023/07/23 08:18:35;;;;;;;9.63;5.88;;;;;;;15.21;100.00;100637.56;5045169;28;20099;-73
2023/07/23 08:21:00;;;;;;;6.75;5.38;;;;;;;15.18;100.00;100628.97;5035535;28;20025;-73
2023/07/23 08:23:26;;;;;;;7.97;5.45;;;;;;;15.24;100.00;100639.19;5037205;28;20115;-73
2023/07/23 08:25:55;;;;;;;6.88;5.32;;;;;;;15.29;100.00;100631.09;5035985;28;20031;-73
2023/07/23 08:28:32;;;;;;;6.65;4.97;;;;;;;15.21;100.00;100628.84;5044968;28;20082;-73
2023/07/23 08:31:00;;;;;;;8.57;4.78;;;;;;;15.46;100.00;100639.03;5041607;28;20113;-72
2023/07/23 08:33:27;;;;;;;7.90;4.88;;;;;;;15.55;100.00;100641.22;5037374;28;20041;-73
2023/07/23 08:35:53;;;;;;;7.30;4.80;;;;;;;15.65;100.00;100633.75;5042399;28;20028;-72
2023/07/23 08:38:18;;;;;;;5.38;4.05;;;;;;;15.63;100.00;100638.22;5038309;28;20153;-73
2023/07/23 08:40:45;;;;;;;5.95;4.18;;;;;;;15.70;100.00;100642.31;5040575;28;20454;-72
2023/07/23 08:43:42;;;;;;;6.30;4.15;;;;;;;15.79;100.00;100638.38;5047180;28;20033;-72
2023/07/23 08:46:21;;;;;;;7.32;4.25;;;;;;;15.93;100.00;100629.84;5038388;28;20416;-71
2023/07/23 08:48:58;;;;;;;5.50;3.90;;;;;;;16.05;100.00;100627.44;5035496;28;20052;-72
2023/07/23 08:51:31;;;;;;;6.95;3.63;;;;;;;16.16;100.00;100626.94;5046888;28;20044;-72
2023/07/23 08:53:57;;;;;;;5.38;3.45;;;;;;;16.17;100.00;100631.25;5049656;28;20428;-73
2023/07/23 08:56:22;;;;;;;4.63;3.15;;;;;;;16.15;100.00;100626.09;5045056;28;20048;-72
2023/07/23 08:58:49;;;;;;;6.70;3.30;;;;;;;16.16;100.00;100626.94;5038762;28;20052;-72
2023/07/23 09:01:16;;;;;;;3.50;3.03;;;;;;;16.25;100.00;100637.00;5041678;28;20370;-72
2023/07/23 09:03:42;;;;;;;4.60;3.35;;;;;;;16.38;100.00;100629.31;5043968;28;20021;-72
2023/07/23 09:06:08;;;;;;;4.10;3.30;;;;;;;16.50;100.00;100623.41;5043775;28;20144;-72
2023/07/23 09:08:34;;;;;;;5.68;3.03;;;;;;;16.56;100.00;100633.63;5045689;28;20033;-72
2023/07/23 09:11:04;;;;;;;4.10;3.20;;;;;;;16.53;100.00;100638.22;5042212;28;20112;-72
2023/07/23 09:13:34;;;;;;;3.53;3.00;;;;;;;16.53;100.00;100644.31;5035610;28;20029;-72
2023/07/23 09:15:59;;;;;;;3.35;3.00;;;;;;;16.41;100.00;100639.66;5041080;28;20428;-72
2023/07/23 09:18:25;;;;;;;3.63;3.00;;;;;;;16.33;100.00;100641.84;5044590;28;20021;-72
2023/07/23 09:20:50;;;;;;;4.28;3.00;;;;;;;16.21;100.00;100642.47;5043398;28;20028;-72
2023/07/23 09:23:16;;;;;;;4.75;3.30;;;;;;;16.15;100.00;100630.47;5037333;28;20131;-72
2023/07/23 09:25:44;;;;;;;3.28;2.90;;;;;;;16.12;100.00;100636.75;5032166;28;20055;-72
2023/07/23 09:28:23;;;;;;;7.20;3.20;;;;;;;16.00;100.00;100633.88;5040267;28;20059;-72
2023/07/23 09:30:51;;;;;;;4.03;3.25;;;;;;;15.89;100.00;100648.41;5033449;28;20055;-74
2023/07/23 09:33:17;;;;;;;3.97;3.25;;;;;;;15.79;100.00;100649.75;5045802;28;20045;-74
2023/07/23 09:35:42;;;;;;;6.30;3.53;;;;;;;15.68;100.00;100647.63;5043604;28;20385;-74
2023/07/23 09:38:12;;;;;;;6.65;3.53;;;;;;;15.69;100.00;100651.13;5044038;28;20499;-74
2023/07/23 09:40:40;;;;;;;4.85;3.90;;;;;;;15.74;100.00;100654.38;5046065;28;20351;-74
2023/07/23 09:43:06;;;;;;;4.07;3.50;;;;;;;15.72;100.00;100650.97;5045892;28;20029;-73
2023/07/23 09:45:36;;;;;;;3.95;3.28;;;;;;;15.75;100.00;100647.34;5044706;28;20485;-74
2023/07/23 09:48:02;;;;;;;5.45;4.00;;;;;;;15.74;100.00;100651.75;5040111;28;20037;-73
2023/07/23 09:50:28;;;;;;;4.03;3.40;;;;;;;15.88;100.00;100653.72;5038484;28;20037;-74
2023/07/23 09:52:53;;;;;;;6.40;3.45;;;;;;;15.88;100.00;100651.09;5037939;28;20030;-73
2023/07/23 09:55:22;;;;;;;5.57;3.80;;;;;;;15.87;100.00;100649.41;5033012;28;20025;-73
2023/07/23 09:57:52;;;;;;;5.13;3.50;;;;;;;15.80;100.00;100655.88;5036115;28;20021;-73
2023/07/23 10:00:18;;;;;;;4.00;3.25;;;;;;;15.70;100.00;100654.63;5035193;28;20021;-79
2023/07/23 10:02:50;;;;;;;5.90;3.10;;;;;;;15.62;100.00;100654.94;5042994;28;20683;-79
2023/07/23 10:05:18;;;;;;;5.28;3.10;;;;;;;15.61;100.00;100655.88;5041636;28;20595;-79
2023/07/23 10:07:47;;;;;;;4.20;3.20;;;;;;;15.52;100.00;100659.75;5028845;28;20033;-79
2023/07/23 10:10:14;;;;;;;4.20;2.97;;;;;;;15.54;100.00;100657.09;5036824;28;20061;-78
2023/07/23 10:12:39;;;;;;;6.30;3.30;;;;;;;15.58;100.00;100663.88;5046373;28;20025;-78
2023/07/23 10:15:06;;;;;;;3.78;2.80;;;;;;;15.60;100.00;100662.91;5041937;28;20045;-78
2023/07/23 10:17:33;;;;;;;5.18;3.28;;;;;;;15.65;100.00;100665.31;5035454;28;20040;-78
2023/07/23 10:19:59;;;;;;;4.40;3.38;;;;;;;15.76;100.00;100665.69;5037227;28;20037;-76
2023/07/23 10:22:25;;;;;;;3.72;3.03;;;;;;;15.77;100.00;100666.53;5037284;28;20030;-78
2023/07/23 10:24:54;;;;;;;3.80;2.83;;;;;;;15.73;100.00;100664.97;5035323;28;20033;-78
2023/07/23 10:27:19;;;;;;;4.35;3.22;;;;;;;15.74;100.00;100659.66;5030485;28;20026;-78
2023/07/23 10:30:15;;;;;;;4.03;2.95;;;;;;;15.76;100.00;100672.69;5032356;28;20040;-77
2023/07/23 10:32:40;;;;;;;5.00;3.10;;;;;;;15.75;100.00;100668.38;5030222;28;20147;-77
2023/07/23 10:35:06;;;;;;;3.55;3.00;;;;;;;15.73;100.00;100670.22;5046401;28;20145;-77
2023/07/23 10:37:31;;;;;;;3.70;3.03;;;;;;;15.69;100.00;100666.88;5037988;28;20031;-77
2023/07/23 10:39:59;;;;;;;4.18;3.25;;;;;;;15.74;100.00;100674.56;5048658;28;20186;-77
2023/07/23 10:42:41;;;;;;;5.50;3.90;;;;;;;15.74;100.00;100674.56;5043107;28;20028;-77
2023/07/23 10:45:19;;;;;;;4.82;3.03;;;;;;;15.71;100.00;100666.81;5037887;28;20036;-78
2023/07/23 10:47:48;;;;;;;4.38;3.10;;;;;;;15.80;100.00;100675.13;5038489;28;20029;-77
2023/07/23 10:50:15;;;;;;;4.05;3.42;;;;;;;15.86;100.00;100666.09;5044719;28;20068;-78
2023/07/23 10:52:45;;;;;;;5.97;3.72;;;;;;;15.86;100.00;100669.56;5042025;28;20021;-77
2023/07/23 10:55:11;;;;;;;4.85;3.75;;;;;;;15.82;100.00;100656.63;5044190;28;20037;-77
2023/07/23 10:57:41;;;;;;;4.32;3.53;;;;;;;15.97;100.00;100671.69;5043653;28;20018;-77
2023/07/23 11:00:26;;;;;;;4.30;3.70;;;;;;;16.14;100.00;100663.81;5042889;28;20488;-77
2023/07/23 11:02:55;;;;;;;5.40;3.83;;;;;;;16.22;100.00;100660.81;5041128;28;20095;-77
2023/07/23 11:05:21;;;;;;;5.55;3.90;;;;;;;16.30;100.00;100657.78;5043986;28;20025;-76
2023/07/23 11:08:16;;;;;;;6.32;3.85;;;;;;;16.42;100.00;100659.81;5042923;28;20041;-76
2023/07/23 11:11:00;;;;;;;4.57;3.70;;;;;;;16.56;100.00;100670.47;5032411;28;20031;-77
2023/07/23 11:13:33;;;;;;;5.60;4.55;;;;;;;16.73;100.00;100661.72;5042862;28;20030;-77